Time;durP1;ratioP1;P1;durP2;ratioP2;P2;SDS_P1;SDS_P2;PMS_P1;PMS_P2;Temp;Humidity;BMP_temperature;BMP_pressure;BME280_temperature;BME280_humidity;BME280_pressure;Samples;Min_cycle;Max_cycle;Signal;HPM_P1;HPM_P2
2023/05/28 00:02:34;;;;;;;;;;;;;;;18.37;42.07;100629.00;5365774;32;34919;-86
2023/05/28 00:05:36;;;;;;;;;;;;;;;18.40;41.67;100625.25;5362872;32;33065;-85
2023/05/28 00:08:38;;;;;;;;;;;;;;;18.50;41.49;100628.16;5359719;32;33733;-84
2023/05/28 00:11:40;;;;;;;;;;;;;;;18.70;41.15;100630.34;5349462;32;35350;-85
2023/05/28 00:14:42;;;;;;;;;;;;;;;18.60;40.93;100630.06;5337444;32;44798;-86
2023/05/28 00:17:44;;;;;;;;;;;;;;;19.35;38.83;100624.84;5371669;32;34535;-85
2023/05/28 00:20:48;;;;;;;;;;;;;;;19.05;38.96;100627.00;5350769;32;34212;-85
2023/05/28 00:23:50;;;;;;;;;;;;;;;18.62;39.23;100622.00;5364052;32;33144;-86
2023/05/28 00:26:52;;;;;;;;;;;;;;;18.69;38.57;100633.97;5365084;32;32737;-85
2023/05/28 00:29:54;;;;;;;;;;;;;;;19.05;37.81;100624.34;5360629;32;34462;-85
2023/05/28 00:32:56;;;;;;;;;;;;;;;18.93;38.03;100618.94;5376713;32;33484;-85
2023/05/28 00:35:58;;;;;;;;;;;;;;;18.63;38.28;100621.88;5342871;32;34157;-85
2023/05/28 00:39:04;;;;;;;;;;;;;;;18.85;37.90;100615.94;5353958;32;33965;-85
2023/05/28 00:42:07;;;;;;;;;;;;;;;18.93;37.96;100612.75;5336786;32;34456;-85
2023/05/28 00:45:11;;;;;;;;;;;;;;;18.26;39.18;100601.41;5335321;32;36658;-85
2023/05/28 00:48:13;;;;;;;;;;;;;;;18.19;39.54;100600.97;5369340;32;45420;-87
2023/05/28 00:51:15;;;;;;;;;;;;;;;18.17;39.53;100600.22;5357909;32;36535;-86
2023/05/28 00:54:17;;;;;;;;;;;;;;;18.35;39.02;100603.44;5370531;32;33185;-85
2023/05/28 00:57:21;;;;;;;;;;;;;;;18.32;39.43;100598.31;5320081;32;890260;-85
2023/05/28 01:00:23;;;;;;;;;;;;;;;18.35;39.08;100596.31;5354643;32;34179;-85
2023/05/28 01:03:25;;;;;;;;;;;;;;;18.84;37.95;100592.94;5346128;32;32629;-84
2023/05/28 01:06:29;;;;;;;;;;;;;;;18.93;37.53;100581.66;5347687;32;35309;-85
2023/05/28 01:09:31;;;;;;;;;;;;;;;18.46;38.60;100584.06;5360201;32;34367;-85
2023/05/28 01:12:34;;;;;;;;;;;;;;;18.47;38.21;100585.78;5336334;32;34406;-85
2023/05/28 01:15:37;;;;;;;;;;;;;;;19.01;37.00;100581.09;5349179;32;33715;-85
2023/05/28 01:18:44;;;;;;;;;;;;;;;18.30;38.23;100576.31;5359635;32;33830;-85
2023/05/28 01:21:47;;;;;;;;;;;;;;;17.86;39.08;100577.47;5367730;32;44221;-85
2023/05/28 01:24:51;;;;;;;;;;;;;;;17.77;38.85;100575.41;5346257;32;33288;-85
2023/05/28 01:27:53;;;;;;;;;;;;;;;17.95;38.29;100578.66;5361279;32;33855;-85
2023/05/28 01:30:56;;;;;;;;;;;;;;;18.34;37.76;100572.44;5358399;32;34246;-86
2023/05/28 01:33:58;;;;;;;;;;;;;;;17.77;38.94;100578.06;5357059;32;33451;-85
2023/05/28 01:37:07;;;;;;;;;;;;;;;17.76;39.02;100576.37;5367313;32;33622;-85
2023/05/28 01:40:10;;;;;;;;;;;;;;;18.09;38.50;100576.78;5323954;32;34120;-87
2023/05/28 01:43:12;;;;;;;;;;;;;;;17.86;38.79;100564.19;5347904;32;45247;-87
2023/05/28 01:46:14;;;;;;;;;;;;;;;17.81;39.12;100569.81;5346441;32;33195;-85
2023/05/28 01:49:16;;;;;;;;;;;;;;;17.81;38.95;100576.94;5342530;32;34339;-84
2023/05/28 01:52:18;;;;;;;;;;;;;;;17.58;39.29;100570.41;5367765;32;33213;-85
2023/05/28 01:55:20;;;;;;;;;;;;;;;17.01;40.48;100576.72;5343894;32;34235;-85
2023/05/28 01:58:23;;;;;;;;;;;;;;;17.33;40.00;100566.72;5370148;32;33687;-84
2023/05/28 02:01:29;;;;;;;;;;;;;;;17.73;38.99;100556.16;5355989;32;33648;-85
2023/05/28 02:04:31;;;;;;;;;;;;;;;17.07;40.54;100562.22;5349407;32;34399;-85
2023/05/28 02:07:33;;;;;;;;;;;;;;;17.67;39.32;100561.00;5339944;32;33826;-84
2023/05/28 02:10:35;;;;;;;;;;;;;;;17.46;39.81;100569.44;5329164;32;32855;-85
2023/05/28 02:13:40;;;;;;;;;;;;;;;17.32;40.02;100566.78;5332643;32;33410;-83
2023/05/28 02:16:42;;;;;;;;;;;;;;;17.24;40.61;100559.31;5354829;32;44739;-85
2023/05/28 02:19:44;;;;;;;;;;;;;;;17.93;39.30;100556.66;5340808;32;33684;-87
2023/05/28 02:22:46;;;;;;;;;;;;;;;17.49;40.01;100555.09;5358696;32;33728;-87
2023/05/28 02:25:49;;;;;;;;;;;;;;;17.46;39.99;100553.50;5361053;32;34089;-84
2023/05/28 02:28:51;;;;;;;;;;;;;;;17.52;40.00;100557.56;5353758;32;34337;-84
2023/05/28 02:31:53;;;;;;;;;;;;;;;17.65;39.82;100557.59;5339002;32;33269;-85
2023/05/28 02:34:55;;;;;;;;;;;;;;;17.84;39.68;100555.47;5360365;32;33491;-84
2023/05/28 02:37:57;;;;;;;;;;;;;;;17.44;40.47;100558.03;5340595;32;33555;-84
2023/05/28 02:40:59;;;;;;;;;;;;;;;17.62;40.21;100561.31;5365587;32;34300;-84
2023/05/28 02:44:01;;;;;;;;;;;;;;;17.36;40.78;100562.16;5359446;32;34337;-86
2023/05/28 02:47:03;;;;;;;;;;;;;;;17.18;41.12;100565.03;5357819;32;33107;-85
2023/05/28 02:50:17;;;;;;;;;;;;;;;16.90;41.99;100567.72;5370861;32;33803;-84
2023/05/28 02:54:03;;;;;;;;;;;;;;;17.31;41.24;100571.25;5256719;32;35007;-84
2023/05/28 02:57:19;;;;;;;;;;;;;;;17.13;41.64;100563.59;5273362;32;34857;-85
2023/05/28 03:00:23;;;;;;;;;;;;;;;17.18;41.58;100557.06;5311769;32;34627;-84
2023/05/28 03:03:25;;;;;;;;;;;;;;;16.77;42.50;100562.31;5317895;32;33614;-85
2023/05/28 03:06:28;;;;;;;;;;;;;;;17.13;41.87;100558.28;5316455;32;33515;-84
2023/05/28 03:09:30;;;;;;;;;;;;;;;16.77;42.64;100554.34;5300027;32;34229;-85
2023/05/28 03:12:36;;;;;;;;;;;;;;;16.97;42.15;100556.63;5307407;32;35529;-85
2023/05/28 03:15:38;;;;;;;;;;;;;;;16.72;42.83;100562.59;5310540;32;33749;-85
2023/05/28 03:18:40;;;;;;;;;;;;;;;16.68;42.51;100563.72;5308788;32;34894;-85
2023/05/28 03:21:42;;;;;;;;;;;;;;;16.72;42.77;100567.06;5357373;32;44615;-85
2023/05/28 03:24:44;;;;;;;;;;;;;;;17.38;41.32;100549.59;5344994;32;34227;-84
2023/05/28 03:27:46;;;;;;;;;;;;;;;17.29;41.61;100559.88;5370359;32;34015;-85
2023/05/28 03:30:48;;;;;;;;;;;;;;;17.12;42.04;100556.59;5355696;32;34206;-84
2023/05/28 03:33:50;;;;;;;;;;;;;;;17.21;41.94;100559.53;5366256;32;33900;-84
2023/05/28 03:36:52;;;;;;;;;;;;;;;17.14;41.94;100557.38;5353977;32;33605;-85
2023/05/28 03:39:54;;;;;;;;;;;;;;;17.17;41.99;100549.19;5361815;32;33668;-84
2023/05/28 03:42:56;;;;;;;;;;;;;;;16.90;42.82;100555.31;5368282;32;34221;-84
2023/05/28 03:45:58;;;;;;;;;;;;;;;16.95;42.55;100555.03;5359811;32;33762;-84
2023/05/28 03:49:00;;;;;;;;;;;;;;;17.41;41.67;100560.91;5354341;32;33033;-84
2023/05/28 03:52:02;;;;;;;;;;;;;;;17.76;40.96;100555.09;5360334;32;33007;-86
2023/05/28 03:55:05;;;;;;;;;;;;;;;17.80;41.04;100544.16;5370463;32;33473;-85
2023/05/28 03:58:08;;;;;;;;;;;;;;;17.59;41.46;100557.06;5344439;32;34308;-85
2023/05/28 04:01:11;;;;;;;;;;;;;;;16.88;42.84;100549.25;5346970;32;45577;-84
2023/05/28 04:04:15;;;;;;;;;;;;;;;17.21;42.22;100559.53;5369136;32;33432;-85
2023/05/28 04:07:17;;;;;;;;;;;;;;;16.89;43.02;100555.41;5340964;32;34161;-84
2023/05/28 04:10:19;;;;;;;;;;;;;;;17.75;41.54;100559.56;5332198;32;33254;-84
2023/05/28 04:13:22;;;;;;;;;;;;;;;17.62;41.73;100555.97;5335325;32;34369;-84
2023/05/28 04:16:24;;;;;;;;;;;;;;;17.29;42.53;100554.56;5361713;32;33923;-84
2023/05/28 04:19:26;;;;;;;;;;;;;;;17.85;40.99;100550.03;5361361;32;32965;-86
2023/05/28 04:22:29;;;;;;;;;;;;;;;18.15;40.59;100559.56;5341630;32;33659;-86
2023/05/28 04:25:31;;;;;;;;;;;;;;;17.74;41.71;100557.88;5368039;32;33494;-85
2023/05/28 04:28:33;;;;;;;;;;;;;;;17.87;41.36;100552.59;5342165;32;33014;-85
2023/05/28 04:31:36;;;;;;;;;;;;;;;17.78;41.72;100551.41;5371183;32;34754;-85
2023/05/28 04:34:40;;;;;;;;;;;;;;;18.41;40.57;100558.63;5357719;32;33669;-87
2023/05/28 04:37:42;;;;;;;;;;;;;;;18.15;41.04;100559.56;5367546;32;45871;-84
2023/05/28 04:40:49;;;;;;;;;;;;;;;18.60;40.17;100560.84;5335992;32;34360;-86
2023/05/28 04:43:56;;;;;;;;;;;;;;;18.56;40.02;100558.53;5354139;32;33472;-84
2023/05/28 04:46:58;;;;;;;;;;;;;;;18.87;39.80;100566.13;5351950;32;34464;-84
2023/05/28 04:50:01;;;;;;;;;;;;;;;19.69;38.36;100558.41;5353750;32;33260;-84
2023/05/28 04:53:03;;;;;;;;;;;;;;;19.34;39.01;100551.19;5368138;32;33409;-84
2023/05/28 04:56:05;;;;;;;;;;;;;;;19.66;38.55;100553.31;5354853;32;34195;-85
2023/05/28 04:59:09;;;;;;;;;;;;;;;19.59;38.71;100562.75;5364448;32;35309;-84
2023/05/28 05:02:12;;;;;;;;;;;;;;;20.28;37.42;100561.88;5354484;32;44977;-84
2023/05/28 05:05:15;;;;;;;;;;;;;;;20.25;37.17;100566.63;5356327;32;33693;-84
2023/05/28 05:08:17;;;;;;;;;;;;;;;21.02;35.46;100561.50;5370519;32;33623;-85
2023/05/28 05:11:20;;;;;;;;;;;;;;;21.25;35.29;100557.84;5339734;32;33873;-84
2023/05/28 05:14:22;;;;;;;;;;;;;;;21.42;34.72;100552.97;5352017;32;32921;-85
2023/05/28 05:17:24;;;;;;;;;;;;;;;20.91;35.28;100559.69;5358357;32;33970;-86
2023/05/28 05:20:27;;;;;;;;;;;;;;;20.55;36.11;100558.13;5351002;32;34509;-84
2023/05/28 05:23:29;;;;;;;;;;;;;;;21.76;33.85;100551.03;5351594;32;33089;-85
2023/05/28 05:26:31;;;;;;;;;;;;;;;21.59;34.14;100560.47;5356191;32;33758;-86
2023/05/28 05:29:33;;;;;;;;;;;;;;;21.00;35.17;100558.97;5355610;32;33957;-85
2023/05/28 05:32:35;;;;;;;;;;;;;;;21.65;33.95;100561.78;5345916;32;34221;-85
2023/05/28 05:35:37;;;;;;;;;;;;;;;22.76;32.02;100563.00;5371630;32;37216;-85
2023/05/28 05:38:39;;;;;;;;;;;;;;;22.02;33.45;100555.03;5354376;32;33599;-83
2023/05/28 05:41:41;;;;;;;;;;;;;;;22.03;33.48;100545.22;5360664;32;46877;-86
2023/05/28 05:44:46;;;;;;;;;;;;;;;22.21;33.18;100556.19;5371228;32;34432;-86
2023/05/28 05:47:48;;;;;;;;;;;;;;;23.00;31.90;100549.31;5357407;32;34580;-88
2023/05/28 05:50:50;;;;;;;;;;;;;;;22.21;33.41;100554.38;5369794;32;33853;-85
2023/05/28 05:53:53;;;;;;;;;;;;;;;23.00;32.20;100541.28;5357845;32;33973;-86
2023/05/28 05:56:55;;;;;;;;;;;;;;;22.99;32.40;100542.25;5368540;32;33772;-86
2023/05/28 05:59:57;;;;;;;;;;;;;;;22.03;34.42;100548.75;5359609;32;34325;-88
2023/05/28 06:03:00;;;;;;;;;;;;;;;22.62;33.55;100552.66;5347291;32;33623;-88
2023/05/28 06:06:02;;;;;;;;;;;;;;;22.88;33.23;100545.06;5368047;32;33892;-87
2023/05/28 06:09:04;;;;;;;;;;;;;;;23.31;32.20;100546.56;5345317;32;34553;-87
2023/05/28 06:12:06;;;;;;;;;;;;;;;22.95;32.85;100557.78;5340580;32;33714;-85
2023/05/28 06:15:08;;;;;;;;;;;;;;;23.63;31.92;100547.22;5340820;32;33595;-86
2023/05/28 06:18:11;;;;;;;;;;;;;;;24.27;31.21;100543.09;5367395;32;34054;-89
2023/05/28 06:21:13;;;;;;;;;;;;;;;24.88;30.03;100539.13;5345947;32;44732;-85
2023/05/28 06:24:15;;;;;;;;;;;;;;;24.14;30.50;100546.06;5352217;32;33550;-89
2023/05/28 06:27:18;;;;;;;;;;;;;;;24.69;30.31;100550.78;5361139;32;33830;-86
2023/05/28 06:30:20;;;;;;;;;;;;;;;24.67;29.94;100553.62;5356549;32;34456;-87
2023/05/28 06:33:22;;;;;;;;;;;;;;;24.20;31.14;100553.56;5373660;32;33324;-86
2023/05/28 06:36:24;;;;;;;;;;;;;;;24.90;30.01;100553.25;5358104;32;33718;-86
2023/05/28 06:39:26;;;;;;;;;;;;;;;25.25;29.97;100563.31;5365180;32;33878;-85
2023/05/28 06:42:28;;;;;;;;;;;;;;;26.80;27.88;100556.59;5358513;32;34209;-89
2023/05/28 06:45:32;;;;;;;;;;;;;;;25.78;28.59;100560.69;5363927;32;33651;-89
2023/05/28 06:48:35;;;;;;;;;;;;;;;24.81;30.06;100563.91;5370951;32;34406;-86
2023/05/28 06:51:40;;;;;;;;;;;;;;;26.10;28.60;100557.44;5278438;32;33232;-87
2023/05/28 06:54:47;;;;;;;;;;;;;;;25.44;29.26;100557.81;5310970;32;43503;-91
2023/05/28 06:57:49;;;;;;;;;;;;;;;26.21;28.22;100561.72;5321331;32;33240;-86
2023/05/28 07:00:51;;;;;;;;;;;;;;;25.87;28.92;100553.53;5330762;32;34054;-88
2023/05/28 07:03:53;;;;;;;;;;;;;;;27.11;26.72;100554.22;5322661;32;35165;-87
2023/05/28 07:06:55;;;;;;;;;;;;;;;27.11;26.82;100554.22;5321312;32;33152;-89
2023/05/28 07:09:57;;;;;;;;;;;;;;;26.13;28.46;100548.19;5325387;32;33750;-86
2023/05/28 07:12:59;;;;;;;;;;;;;;;27.24;26.55;100541.97;5290375;32;33145;-87
2023/05/28 07:16:01;;;;;;;;;;;;;;;27.13;27.22;100542.28;5337491;32;34530;-88
2023/05/28 07:19:04;;;;;;;;;;;;;;;25.73;29.09;100552.22;5365135;32;33301;-87
2023/05/28 07:22:06;;;;;;;;;;;;;;;25.83;28.74;100550.31;5373832;32;33167;-88
2023/05/28 07:25:08;;;;;;;;;;;;;;;24.91;30.08;100555.78;5353826;32;34353;-86
2023/05/28 07:28:10;;;;;;;;;;;;;;;24.46;31.06;100547.59;5356152;32;34186;-86
2023/05/28 07:31:12;;;;;;;;;;;;;;;24.85;30.18;100557.22;5375248;32;45131;-86
2023/05/28 07:34:18;;;;;;;;;;;;;;;24.97;30.18;100557.03;5355768;32;34100;-85
2023/05/28 07:37:20;;;;;;;;;;;;;;;23.80;32.37;100552.88;5367490;32;33683;-85
2023/05/28 07:40:22;;;;;;;;;;;;;;;23.46;32.80;100551.41;5359863;32;34861;-87
2023/05/28 07:43:28;;;;;;;;;;;;;;;24.38;31.52;100545.63;5372928;32;32882;-87
2023/05/28 07:46:30;;;;;;;;;;;;;;;24.90;30.82;100545.19;5370870;32;36002;-85
2023/05/28 07:49:35;;;;;;;;;;;;;;;24.98;30.84;100539.91;5336405;32;34193;-87
2023/05/28 07:52:37;;;;;;;;;;;;;;;25.32;29.93;100545.56;5369736;32;34983;-86
2023/05/28 07:55:39;;;;;;;;;;;;;;;25.64;29.87;100542.37;5359880;32;34230;-86
2023/05/28 07:58:45;;;;;;;;;;;;;;;24.96;30.96;100547.28;5355833;32;45335;-85
2023/05/28 08:01:47;;;;;;;;;;;;;;;25.24;30.82;100543.59;5364799;32;33119;-85
2023/05/28 08:04:49;;;;;;;;;;;;;;;26.19;29.52;100539.50;5374982;32;33954;-86
2023/05/28 08:07:51;;;;;;;;;;;;;;;27.42;27.54;100531.03;5357515;32;33425;-85
2023/05/28 08:10:54;;;;;;;;;;;;;;;27.32;27.85;100534.91;5345188;32;34000;-84
2023/05/28 08:13:56;;;;;;;;;;;;;;;28.49;26.47;100524.69;5347253;32;36048;-89
2023/05/28 08:16:58;;;;;;;;;;;;;;;28.73;25.97;100522.94;5364379;32;31665;-87
2023/05/28 08:20:00;;;;;;;;;;;;;;;26.73;29.47;100537.53;5367136;32;34107;-90
2023/05/28 08:23:04;;;;;;;;;;;;;;;27.60;27.50;100527.38;5371462;32;33399;-87
2023/05/28 08:26:06;;;;;;;;;;;;;;;26.99;28.58;100526.69;5369112;32;33775;-87
2023/05/28 08:29:09;;;;;;;;;;;;;;;27.97;27.27;100518.81;5372929;32;33076;-88
2023/05/28 08:32:10;;;;;;;;;;;;;;;26.57;29.12;100524.78;5367441;32;36245;-86
2023/05/28 08:35:12;;;;;;;;;;;;;;;26.97;28.91;100524.13;5374235;32;34145;-88
2023/05/28 08:38:14;;;;;;;;;;;;;;;26.63;29.28;100520.59;5357187;32;34080;-85
2023/05/28 08:41:17;;;;;;;;;;;;;;;28.07;27.74;100509.50;5373682;32;33884;-87
2023/05/28 08:44:19;;;;;;;;;;;;;;;26.59;30.02;100511.13;5364084;32;33077;-89
2023/05/28 08:47:22;;;;;;;;;;;;;;;28.59;27.01;100508.25;5370817;32;33174;-87
2023/05/28 08:50:24;;;;;;;;;;;;;;;26.42;29.55;100515.59;5369732;32;34063;-87
2023/05/28 08:53:30;;;;;;;;;;;;;;;27.60;28.09;100500.38;5365602;32;35158;-87
2023/05/28 08:56:38;;;;;;;;;;;;;;;29.18;26.19;100494.34;5383604;32;34095;-86
2023/05/28 08:59:40;;;;;;;;;;;;;;;28.22;27.56;100500.72;5345676;32;33299;-88
2023/05/28 09:02:42;;;;;;;;;;;;;;;29.11;26.17;100486.94;5360956;32;44952;-88
2023/05/28 09:05:47;;;;;;;;;;;;;;;27.75;27.92;100485.22;5348668;32;35065;-89
2023/05/28 09:08:49;;;;;;;;;;;;;;;30.25;25.38;100493.34;5359157;32;34297;-86
2023/05/28 09:11:51;;;;;;;;;;;;;;;30.57;24.33;100483.19;5337756;32;34951;-86
2023/05/28 09:14:53;;;;;;;;;;;;;;;31.61;23.05;100476.50;5332060;32;34291;-87
2023/05/28 09:17:58;;;;;;;;;;;;;;;29.08;25.87;100487.28;5354326;32;33286;-88
2023/05/28 09:21:00;;;;;;;;;;;;;;;29.30;26.13;100479.34;5351552;32;34265;-89
2023/05/28 09:24:03;;;;;;;;;;;;;;;29.08;25.67;100487.28;5357404;32;33424;-87
2023/05/28 09:27:05;;;;;;;;;;;;;;;30.07;24.53;100477.41;5360513;32;33079;-87
2023/05/28 09:30:12;;;;;;;;;;;;;;;29.35;25.61;100477.81;5350432;32;44508;-86
2023/05/28 09:33:14;;;;;;;;;;;;;;;32.07;22.49;100459.78;5356608;32;34338;-87
2023/05/28 09:36:17;;;;;;;;;;;;;;;32.53;22.14;100459.28;5347322;32;33854;-86
2023/05/28 09:39:23;;;;;;;;;;;;;;;30.34;24.26;100465.16;5368900;32;33148;-86
2023/05/28 09:42:25;;;;;;;;;;;;;;;30.65;23.83;100464.09;5344099;32;33627;-87
2023/05/28 09:45:27;;;;;;;;;;;;;;;30.27;23.82;100461.50;5366469;32;33661;-87
2023/05/28 09:48:30;;;;;;;;;;;;;;;30.63;23.41;100463.44;5354082;32;33517;-88
2023/05/28 09:51:32;;;;;;;;;;;;;;;32.24;21.57;100449.44;5362098;32;33790;-89
2023/05/28 09:54:35;;;;;;;;;;;;;;;32.41;21.58;100461.72;5373288;32;35427;-91
2023/05/28 09:57:37;;;;;;;;;;;;;;;28.43;25.89;100460.50;5348252;32;34582;-87
2023/05/28 10:00:40;;;;;;;;;;;;;;;30.17;23.92;100450.09;5360349;32;34993;-88
2023/05/28 10:03:43;;;;;;;;;;;;;;;30.01;24.41;100456.47;5338927;32;45017;-87
2023/05/28 10:06:46;;;;;;;;;;;;;;;31.90;22.35;100453.81;5357028;32;33691;-87
2023/05/28 10:09:49;;;;;;;;;;;;;;;32.20;21.37;100440.84;5359286;32;33950;-87
2023/05/28 10:12:53;;;;;;;;;;;;;;;32.79;20.54;100443.06;5335516;32;34515;-89
2023/05/28 10:15:55;;;;;;;;;;;;;;;32.64;20.75;100445.06;5382829;32;33477;-91
2023/05/28 10:18:59;;;;;;;;;;;;;;;32.03;21.27;100439.47;5375982;32;33027;-91
2023/05/28 10:22:01;;;;;;;;;;;;;;;31.36;22.28;100434.47;5358989;32;33470;-89
2023/05/28 10:25:03;;;;;;;;;;;;;;;31.46;22.01;100437.72;5357856;32;33067;-88
2023/05/28 10:28:07;;;;;;;;;;;;;;;33.23;19.96;100430.00;5357589;32;33726;-86
2023/05/28 10:31:10;;;;;;;;;;;;;;;33.36;19.95;100417.28;5374032;32;35800;-88
2023/05/28 10:34:15;;;;;;;;;;;;;;;32.01;21.10;100422.50;5361482;32;44581;-88
2023/05/28 10:37:22;;;;;;;;;;;;;;;29.75;23.61;100426.25;5382185;32;34261;-88
2023/05/28 10:40:24;;;;;;;;;;;;;;;32.54;20.86;100410.09;5364065;32;33433;-86
2023/05/28 10:43:42;;;;;;;;;;;;;;;33.56;19.67;100417.31;5361623;32;33487;-90
2023/05/28 10:46:44;;;;;;;;;;;;;;;32.43;20.64;100415.28;5371251;32;44558;-89
2023/05/28 10:50:09;;;;;;;;;;;;;;;32.11;21.33;100412.12;5380078;32;33616;-89
2023/05/28 10:53:19;;;;;;;;;;;;;;;32.79;20.03;100415.00;5365692;32;45102;-87
2023/05/28 10:56:21;;;;;;;;;;;;;;;32.79;20.40;100406.84;5373691;32;33130;-88
2023/05/28 10:59:37;;;;;;;;;;;;;;;32.72;20.31;100414.13;5381267;32;33648;-88
2023/05/28 11:02:41;;;;;;;;;;;;;;;32.04;20.55;100400.38;5376401;32;34914;-88
2023/05/28 11:05:43;;;;;;;;;;;;;;;32.01;20.49;100406.19;5348168;32;44692;-91
2023/05/28 11:08:50;;;;;;;;;;;;;;;31.83;21.00;100401.28;5364940;32;33208;-87
2023/05/28 11:11:53;;;;;;;;;;;;;;;33.65;19.12;100383.34;5362590;32;34464;-90
2023/05/28 11:14:57;;;;;;;;;;;;;;;31.92;20.46;100389.22;5358574;32;34688;-86
2023/05/28 11:18:01;;;;;;;;;;;;;;;34.05;18.67;100385.19;5350569;32;33947;-87
2023/05/28 11:21:23;;;;;;;;;;;;;;;32.77;19.88;100395.31;5378152;32;33581;-91
2023/05/28 11:24:25;;;;;;;;;;;;;;;31.66;20.60;100381.69;5384855;32;33071;-88
2023/05/28 11:27:28;;;;;;;;;;;;;;;34.45;17.66;100383.19;5347580;32;33562;-87
2023/05/28 11:30:30;;;;;;;;;;;;;;;35.23;17.37;100369.34;5370449;32;34169;-90
2023/05/28 11:33:32;;;;;;;;;;;;;;;31.79;20.33;100373.66;5358725;32;33594;-88
2023/05/28 11:36:53;;;;;;;;;;;;;;;33.07;18.89;100365.91;5376839;32;33852;-89
2023/05/28 11:39:55;;;;;;;;;;;;;;;31.88;20.04;100358.06;5363600;32;33790;-88
2023/05/28 11:42:58;;;;;;;;;;;;;;;32.26;20.01;100353.00;5355353;32;33607;-91
2023/05/28 11:46:04;;;;;;;;;;;;;;;31.50;21.11;100357.53;5380590;32;34667;-90
2023/05/28 11:49:07;;;;;;;;;;;;;;;32.09;20.55;100354.41;5363121;32;33852;-91
2023/05/28 11:52:09;;;;;;;;;;;;;;;31.59;20.71;100347.38;5378480;32;33605;-89
2023/05/28 11:55:11;;;;;;;;;;;;;;;31.51;20.95;100348.34;5371836;32;45019;-87
2023/05/28 11:58:14;;;;;;;;;;;;;;;32.25;20.83;100340.47;5361376;32;34673;-89
2023/05/28 12:01:18;;;;;;;;;;;;;;;31.69;20.86;100343.28;5370810;32;34328;-89
2023/05/28 12:04:21;;;;;;;;;;;;;;;31.58;21.10;100349.25;5346558;32;34700;-91
2023/05/28 12:07:33;;;;;;;;;;;;;;;31.24;21.61;100340.00;5385259;32;36883;-90
2023/05/28 12:10:35;;;;;;;;;;;;;;;29.66;23.56;100353.19;5346129;32;35348;-89
2023/05/28 12:13:38;;;;;;;;;;;;;;;29.12;24.45;100349.78;5357605;32;34119;-87
2023/05/28 12:16:48;;;;;;;;;;;;;;;28.61;25.57;100352.13;5359766;32;44760;-88
2023/05/28 12:19:50;;;;;;;;;;;;;;;28.30;25.59;100352.91;5375869;32;33613;-89
2023/05/28 12:23:03;;;;;;;;;;;;;;;27.23;27.52;100353.25;5367976;32;35415;-87
2023/05/28 12:26:08;;;;;;;;;;;;;;;28.63;25.67;100339.25;5365154;32;34155;-90
2023/05/28 12:29:10;;;;;;;;;;;;;;;27.15;27.54;100347.88;5388084;32;34354;-89
2023/05/28 12:32:12;;;;;;;;;;;;;;;27.25;27.36;100348.56;5371479;32;46973;-87
2023/05/28 12:35:16;;;;;;;;;;;;;;;26.83;28.30;100338.69;5377199;32;33757;-89
2023/05/28 12:38:18;;;;;;;;;;;;;;;27.61;26.91;100345.47;5380190;32;34659;-88
2023/05/28 12:41:23;;;;;;;;;;;;;;;27.25;27.50;100343.16;5366043;32;35745;-86
2023/05/28 12:44:27;;;;;;;;;;;;;;;27.59;27.10;100336.72;5354613;32;34346;-89
2023/05/28 12:47:29;;;;;;;;;;;;;;;27.50;27.37;100333.16;5356624;32;33501;-89
2023/05/28 12:50:31;;;;;;;;;;;;;;;26.95;28.21;100336.53;5374043;32;32994;-89
2023/05/28 12:53:33;;;;;;;;;;;;;;;27.43;26.96;100324.91;5365691;32;32796;-90
2023/05/28 12:56:35;;;;;;;;;;;;;;;27.78;26.67;100325.56;5365378;32;33573;-86
2023/05/28 12:59:37;;;;;;;;;;;;;;;27.98;26.16;100324.16;5373505;32;35242;-87
2023/05/28 13:02:40;;;;;;;;;;;;;;;27.43;26.31;100327.59;5366164;32;35877;-87
2023/05/28 13:05:42;;;;;;;;;;;;;;;28.90;24.77;100321.66;5354626;32;44172;-86
2023/05/28 13:08:44;;;;;;;;;;;;;;;28.35;25.29;100311.87;5355732;32;33798;-88
2023/05/28 13:11:46;;;;;;;;;;;;;;;27.41;26.83;100321.53;5360143;32;33763;-85
2023/05/28 13:14:48;;;;;;;;;;;;;;;26.91;27.41;100316.28;5365439;32;33494;-87
2023/05/28 13:17:50;;;;;;;;;;;;;;;26.99;25.80;100322.53;5375355;32;33918;-91
2023/05/28 13:20:53;;;;;;;;;;;;;;;27.05;25.54;100317.47;5383296;32;34063;-90
2023/05/28 13:23:55;;;;;;;;;;;;;;;26.98;25.50;100320.00;5366891;32;33456;-90
2023/05/28 13:26:57;;;;;;;;;;;;;;;26.88;25.46;100319.34;5367403;32;34014;-90
2023/05/28 13:30:01;;;;;;;;;;;;;;;26.68;24.42;100311.56;5341769;32;33303;-88
2023/05/28 13:33:03;;;;;;;;;;;;;;;27.05;23.47;100312.97;5357669;32;33637;-87
2023/05/28 13:36:06;;;;;;;;;;;;;;;28.04;22.59;100299.13;5360890;32;33496;-92
2023/05/28 13:39:09;;;;;;;;;;;;;;;27.45;23.29;100303.16;5348752;32;34260;-87
2023/05/28 13:42:12;;;;;;;;;;;;;;;28.16;23.15;100294.19;5373297;32;44950;-89
2023/05/28 13:45:14;;;;;;;;;;;;;;;27.74;23.05;100297.22;5353172;32;32854;-87
2023/05/28 13:48:19;;;;;;;;;;;;;;;27.33;23.89;100288.34;5378037;32;33724;-91
2023/05/28 13:51:24;;;;;;;;;;;;;;;27.22;23.69;100287.66;5356536;32;35664;-89
2023/05/28 13:54:26;;;;;;;;;;;;;;;27.62;23.23;100285.91;5377621;32;33641;-89
2023/05/28 13:57:29;;;;;;;;;;;;;;;27.36;23.42;100283.44;5373000;32;35208;-85
2023/05/28 14:00:31;;;;;;;;;;;;;;;27.48;22.72;100281.22;5362241;32;33671;-87
2023/05/28 14:03:44;;;;;;;;;;;;;;;27.63;22.93;100281.34;5365197;32;34284;-89
2023/05/28 14:06:48;;;;;;;;;;;;;;;27.17;23.71;100275.69;5348368;32;45624;-87
2023/05/28 14:09:50;;;;;;;;;;;;;;;26.98;24.07;100277.72;5368751;32;31700;-91
2023/05/28 14:12:58;;;;;;;;;;;;;;;27.07;23.47;100275.88;5334881;32;33199;-88
2023/05/28 14:16:01;;;;;;;;;;;;;;;27.67;22.29;100274.59;5366403;32;32923;-86
2023/05/28 14:19:03;;;;;;;;;;;;;;;27.40;22.25;100276.69;5376164;32;33017;-87
2023/05/28 14:22:05;;;;;;;;;;;;;;;27.49;22.96;100275.63;5369974;32;33122;-88
2023/05/28 14:25:08;;;;;;;;;;;;;;;28.48;22.31;100266.19;5375992;32;34378;-87
2023/05/28 14:28:10;;;;;;;;;;;;;;;27.53;22.28;100258.09;5362800;32;33948;-87
2023/05/28 14:31:13;;;;;;;;;;;;;;;27.68;21.49;100262.78;5361817;32;44495;-88
2023/05/28 14:34:15;;;;;;;;;;;;;;;27.38;22.11;100267.09;5363207;32;33177;-88
2023/05/28 14:37:20;;;;;;;;;;;;;;;27.88;21.84;100260.53;5363271;32;33690;-86
2023/05/28 14:40:22;;;;;;;;;;;;;;;26.87;23.41;100261.03;5344236;32;33868;-87
2023/05/28 14:43:24;;;;;;;;;;;;;;;27.63;22.36;100247.13;5363325;32;33761;-86
2023/05/28 14:46:26;;;;;;;;;;;;;;;28.24;21.89;100255.47;5373948;32;33456;-90
2023/05/28 14:49:29;;;;;;;;;;;;;;;26.42;23.78;100252.38;5376212;32;33396;-92
2023/05/28 14:52:31;;;;;;;;;;;;;;;27.08;22.44;100250.59;5366759;32;35425;-87
2023/05/28 14:55:33;;;;;;;;;;;;;;;26.71;22.95;100246.50;5359930;32;34363;-89
2023/05/28 14:58:36;;;;;;;;;;;;;;;27.10;22.64;100239.63;5364307;32;36139;-87
2023/05/28 15:01:38;;;;;;;;;;;;;;;27.56;21.51;100238.00;5381538;32;34303;-90
2023/05/28 15:04:43;;;;;;;;;;;;;;;27.36;22.10;100242.94;5364629;32;34269;-86
2023/05/28 15:07:47;;;;;;;;;;;;;;;27.95;21.50;100240.78;5375356;32;44862;-88
2023/05/28 15:10:49;;;;;;;;;;;;;;;27.03;22.35;100236.72;5349884;32;33998;-88
2023/05/28 15:13:51;;;;;;;;;;;;;;;26.70;22.00;100243.97;5346038;32;33981;-87
2023/05/28 15:16:58;;;;;;;;;;;;;;;26.86;21.80;100244.00;5367790;32;33680;-86
2023/05/28 15:20:04;;;;;;;;;;;;;;;27.17;21.47;100237.94;5357699;32;33531;-88
2023/05/28 15:23:06;;;;;;;;;;;;;;;26.37;21.99;100240.37;5369303;32;33715;-89
2023/05/28 15:26:09;;;;;;;;;;;;;;;26.66;21.73;100231.84;5370782;32;34235;-87
2023/05/28 15:29:14;;;;;;;;;;;;;;;26.79;22.08;100231.34;5369684;32;44473;-86
2023/05/28 15:32:16;;;;;;;;;;;;;;;26.63;22.31;100227.63;5366148;32;33559;-87
2023/05/28 15:35:18;;;;;;;;;;;;;;;26.78;21.86;100232.34;5347163;32;33656;-88
2023/05/28 15:38:20;;;;;;;;;;;;;;;26.54;21.54;100225.12;5371897;32;33150;-85
2023/05/28 15:41:22;;;;;;;;;;;;;;;26.55;21.42;100226.81;5359638;32;34410;-86